Terminal Aerodrome Forecast
Issued by NWS

Current Version | Previous Version | Text Only | Print | Product List | Glossary Off
Versions: 1 2 3 4 5 6 7 8 9 10 11 12 13 14 15 16 17 18 19 20 21 22 23 24 25 26 27 28

000
FTUS41 KRLX 251500 AAA
TAFCKB
TAF AMD
KCKB 251520Z 2515/2612 19004KT P6SM OVC035
     FM251700 VRB03KT P6SM -RA OVC035
     FM252200 00000KT P6SM BKN040
     FM260400 00000KT 6SM -RA OVC020
     FM260500 00000KT 5SM -RA OVC015
     FM260600 00000KT 2SM -RA BR OVC008=

USA.gov is the U.S. government's official web portal to all federal, state and local government web resources and services.